createdAt,value
2022-09-23T00:01:21.252Z,7.55
2022-09-23T00:03:49.279Z,7.51
2022-09-23T00:06:22.069Z,7.48
2022-09-23T00:08:51.455Z,7.46
2022-09-23T00:11:22.269Z,7.45
2022-09-23T00:13:53.008Z,7.43
2022-09-23T00:16:28.554Z,7.41
2022-09-23T00:18:56.722Z,7.39
2022-09-23T00:21:25.223Z,7.39
2022-09-23T00:23:53.310Z,7.35
2022-09-23T00:26:22.673Z,7.33
2022-09-23T00:28:51.774Z,7.30
2022-09-23T00:31:25.379Z,7.22
2022-09-23T00:33:58.765Z,7.19
2022-09-23T00:36:28.569Z,7.15
2022-09-23T00:38:56.795Z,7.13
2022-09-23T00:41:25.644Z,7.14
2022-09-23T00:43:56.722Z,7.16
2022-09-23T00:46:43.514Z,7.18
2022-09-23T00:49:21.217Z,7.15
2022-09-23T00:51:58.716Z,7.11
2022-09-23T00:54:27.675Z,7.09
2022-09-23T00:56:57.496Z,7.08
2022-09-23T00:59:26.323Z,7.07
2022-09-23T01:01:57.134Z,7.05
2022-09-23T01:04:27.246Z,7.04
2022-09-23T01:06:54.892Z,7.02
2022-09-23T01:09:24.027Z,7.00
2022-09-23T01:12:04.696Z,6.99
2022-09-23T01:15:04.340Z,7.01
2022-09-23T01:17:53.079Z,7.01
2022-09-23T01:20:52.645Z,7.02
2022-09-23T01:23:36.140Z,7.01
2022-09-23T01:26:22.782Z,6.98
2022-09-23T01:29:07.346Z,6.94
2022-09-23T01:31:58.076Z,6.90
2022-09-23T01:34:42.126Z,6.85
2022-09-23T01:37:17.685Z,6.78
2022-09-23T01:39:58.126Z,6.72
2022-09-23T01:42:42.867Z,6.69
2022-09-23T01:45:19.658Z,6.67
2022-09-23T01:48:19.371Z,6.65
2022-09-23T01:51:04.688Z,6.64
2022-09-23T01:53:44.444Z,6.64
2022-09-23T01:56:54.490Z,6.61
2022-09-23T01:59:39.127Z,6.57
2022-09-23T02:02:15.167Z,6.52
2022-09-23T02:04:56.891Z,6.48
2022-09-23T02:07:29.997Z,6.47
2022-09-23T02:10:07.243Z,6.47
2022-09-23T02:12:38.308Z,6.46
2022-09-23T02:15:10.365Z,6.45
2022-09-23T02:17:54.874Z,6.36
2022-09-23T02:20:29.538Z,6.24
2022-09-23T02:23:12.075Z,6.17
2022-09-23T02:26:08.607Z,6.11
2022-09-23T02:29:04.008Z,6.03
2022-09-23T02:31:42.096Z,5.97
2022-09-23T02:34:28.666Z,5.96
2022-09-23T02:37:08.456Z,5.99
2022-09-23T02:39:48.523Z,6.07
2022-09-23T02:42:22.042Z,6.16
2022-09-23T02:44:50.199Z,6.24
2022-09-23T02:47:24.032Z,6.31
2022-09-23T02:49:51.894Z,6.39
2022-09-23T02:52:19.506Z,6.38
2022-09-23T02:54:47.234Z,6.38
2022-09-23T02:57:15.090Z,6.43
2022-09-23T02:59:43.254Z,6.51
2022-09-23T03:02:42.589Z,6.57
2022-09-23T03:05:33.245Z,6.60
2022-09-23T03:08:33.110Z,6.64
2022-09-23T03:11:07.100Z,6.65
2022-09-23T03:13:47.570Z,6.64
2022-09-23T03:16:35.121Z,6.62
2022-09-23T03:19:33.885Z,6.57
2022-09-23T03:22:20.310Z,6.48
2022-09-23T03:24:53.854Z,6.43
2022-09-23T03:27:23.990Z,6.38
2022-09-23T03:29:54.032Z,6.31
2022-09-23T03:32:24.961Z,6.24
2022-09-23T03:34:54.985Z,6.18
2022-09-23T03:37:41.523Z,6.14
2022-09-23T03:40:19.310Z,6.12
2022-09-23T03:42:49.036Z,6.07
2022-09-23T03:45:26.068Z,6.09
2022-09-23T03:47:53.801Z,6.10
2022-09-23T03:50:22.130Z,6.08
2022-09-23T03:52:50.512Z,6.09
2022-09-23T03:55:19.741Z,6.06
2022-09-23T03:57:47.881Z,5.99
2022-09-23T04:00:16.198Z,5.91
2022-09-23T04:02:44.548Z,5.84
2022-09-23T04:05:13.359Z,5.81
2022-09-23T04:07:41.308Z,5.80
2022-09-23T04:10:10.751Z,5.82
2022-09-23T04:12:38.487Z,5.82
2022-09-23T04:15:07.125Z,5.85
2022-09-23T04:17:34.894Z,5.88
2022-09-23T04:20:03.233Z,5.89
2022-09-23T04:22:33.139Z,5.86
2022-09-23T04:25:00.914Z,5.81
2022-09-23T04:27:28.636Z,5.74
2022-09-23T04:29:56.331Z,5.69
2022-09-23T04:32:24.807Z,5.65
2022-09-23T04:34:52.521Z,5.65
2022-09-23T04:37:20.334Z,5.69
2022-09-23T04:39:48.005Z,5.69
2022-09-23T04:42:15.824Z,5.72
2022-09-23T04:44:43.574Z,5.74
2022-09-23T04:47:11.368Z,5.74
2022-09-23T04:49:39.149Z,5.75
2022-09-23T04:52:07.344Z,5.76
2022-09-23T04:54:35.160Z,5.77
2022-09-23T04:57:02.925Z,5.79
2022-09-23T04:59:30.640Z,5.79
2022-09-23T05:01:58.440Z,5.72
2022-09-23T05:04:26.271Z,5.67
2022-09-23T05:06:54.019Z,5.67
2022-09-23T05:09:21.740Z,5.72
2022-09-23T05:11:49.415Z,5.76
2022-09-23T05:14:17.265Z,5.81
2022-09-23T05:16:45.229Z,5.85
2022-09-23T05:19:13.528Z,5.87
2022-09-23T05:21:41.396Z,5.91
2022-09-23T05:24:09.765Z,5.95
2022-09-23T05:26:38.344Z,5.99
2022-09-23T05:29:06.474Z,6.02
2022-09-23T05:31:35.065Z,6.04
2022-09-23T05:34:05.665Z,6.03
2022-09-23T05:36:38.768Z,6.05
2022-09-23T05:39:08.549Z,6.07
2022-09-23T05:41:36.816Z,6.07
2022-09-23T05:44:04.967Z,6.06
2022-09-23T05:46:33.738Z,6.08
2022-09-23T05:49:03.547Z,6.11
2022-09-23T05:51:35.932Z,6.14
2022-09-23T05:54:05.534Z,6.16
2022-09-23T05:56:35.079Z,6.17
2022-09-23T05:59:04.558Z,6.21
2022-09-23T06:01:35.492Z,6.24
2022-09-23T06:04:06.351Z,6.27
2022-09-23T06:06:41.395Z,6.33
2022-09-23T06:09:13.802Z,6.40
2022-09-23T06:11:42.453Z,6.50
2022-09-23T06:14:14.829Z,6.56
2022-09-23T06:16:43.203Z,6.56
2022-09-23T06:19:13.049Z,6.56
2022-09-23T06:21:42.754Z,6.57
2022-09-23T06:24:14.766Z,6.57
2022-09-23T06:26:44.981Z,6.58
2022-09-23T06:29:13.036Z,6.58
2022-09-23T06:31:42.270Z,6.64
2022-09-23T06:34:13.745Z,6.73
2022-09-23T06:36:45.927Z,6.81
2022-09-23T06:39:15.373Z,6.92
2022-09-23T06:41:44.815Z,7.06
2022-09-23T06:44:15.649Z,7.13
2022-09-23T06:46:44.447Z,7.18
2022-09-23T06:49:13.587Z,7.26
2022-09-23T06:51:41.745Z,7.34
2022-09-23T06:54:11.146Z,7.40
2022-09-23T06:56:40.158Z,7.46
2022-09-23T06:59:12.917Z,7.55
2022-09-23T07:01:41.238Z,7.64
2022-09-23T07:04:10.603Z,7.72
2022-09-23T07:06:39.072Z,7.81
2022-09-23T07:09:08.594Z,7.92
2022-09-23T07:11:37.023Z,8.00
2022-09-23T07:14:05.398Z,8.11
2022-09-23T07:16:34.370Z,8.23
2022-09-23T07:19:02.597Z,8.36
2022-09-23T07:21:31.197Z,8.47
2022-09-23T07:23:59.210Z,8.56
2022-09-23T07:26:27.128Z,8.67
2022-09-23T07:28:56.851Z,8.79
2022-09-23T07:31:37.588Z,8.91
2022-09-23T07:34:11.592Z,9.05
2022-09-23T07:36:43.527Z,9.16
2022-09-23T07:39:13.358Z,9.27
2022-09-23T07:41:44.921Z,9.41
2022-09-23T07:44:15.700Z,9.53
2022-09-23T07:46:43.676Z,9.68
2022-09-23T07:49:11.579Z,9.79
2022-09-23T07:51:41.178Z,9.89
2022-09-23T07:54:14.193Z,9.97
2022-09-23T07:56:43.381Z,10.08
2022-09-23T07:59:15.452Z,10.18
2022-09-23T08:01:46.278Z,10.27
2022-09-23T08:04:17.118Z,10.36
2022-09-23T08:06:54.192Z,10.41
2022-09-23T08:09:24.978Z,10.48
2022-09-23T08:11:53.402Z,10.57
2022-09-23T08:14:23.331Z,10.65
2022-09-23T08:16:52.156Z,10.73
2022-09-23T08:19:20.380Z,10.80
2022-09-23T08:21:50.288Z,10.84
2022-09-23T08:24:20.836Z,10.84
2022-09-23T08:26:49.066Z,10.90
2022-09-23T08:29:19.068Z,10.98
2022-09-23T08:31:47.182Z,11.05
2022-09-23T08:34:15.747Z,11.11
2022-09-23T08:36:45.091Z,11.12
2022-09-23T08:39:15.290Z,11.16
2022-09-23T08:41:59.427Z,11.19
2022-09-23T08:44:37.796Z,11.21
2022-09-23T08:47:21.493Z,11.30
2022-09-23T08:50:05.346Z,11.38
2022-09-23T08:52:44.418Z,11.44
2022-09-23T08:55:15.064Z,11.56
2022-09-23T08:58:27.030Z,11.66
2022-09-23T09:01:27.059Z,11.82
2022-09-23T09:03:58.759Z,12.01
2022-09-23T09:06:51.812Z,12.19
2022-09-23T09:09:30.333Z,12.43
2022-09-23T09:12:29.954Z,12.60
2022-09-23T09:15:02.560Z,12.79
2022-09-23T09:17:36.626Z,12.86
2022-09-23T09:20:23.422Z,12.86
2022-09-23T09:23:00.436Z,12.90
2022-09-23T09:25:51.100Z,12.89
2022-09-23T09:28:53.013Z,12.85
2022-09-23T09:31:37.794Z,12.84
2022-09-23T09:34:33.190Z,12.81
2022-09-23T09:37:15.682Z,12.80
2022-09-23T09:39:43.540Z,12.87
2022-09-23T09:42:20.985Z,12.96
2022-09-23T09:44:59.081Z,13.04
2022-09-23T09:47:54.169Z,13.10
2022-09-23T09:50:45.075Z,13.21
2022-09-23T09:53:22.396Z,13.35
2022-09-23T09:56:09.943Z,13.44
2022-09-23T09:58:55.400Z,13.40
2022-09-23T10:01:32.835Z,13.42
2022-09-23T10:04:04.710Z,13.48
2022-09-23T10:06:35.738Z,13.58
2022-09-23T10:09:19.659Z,13.71
2022-09-23T10:12:03.325Z,13.87
2022-09-23T10:14:31.654Z,14.02
2022-09-23T10:17:05.781Z,14.14
2022-09-23T10:19:37.127Z,14.18
2022-09-23T10:22:21.296Z,14.12
2022-09-23T10:24:52.747Z,14.07
2022-09-23T10:27:31.325Z,13.95
2022-09-23T10:30:11.727Z,13.73
2022-09-23T10:32:46.022Z,13.55
2022-09-23T10:35:24.402Z,13.40
2022-09-23T10:38:00.572Z,13.27
2022-09-23T10:41:01.763Z,13.19
2022-09-23T10:44:17.665Z,13.16
2022-09-23T10:47:07.837Z,13.18
2022-09-23T10:50:10.168Z,13.27
2022-09-23T10:52:44.114Z,13.44
2022-09-23T10:55:18.094Z,13.63
2022-09-23T10:57:46.277Z,13.83
2022-09-23T11:00:28.227Z,13.97
2022-09-23T11:03:32.280Z,14.04
2022-09-23T11:06:32.089Z,14.23
2022-09-23T11:09:21.982Z,14.40
2022-09-23T11:12:02.988Z,14.48
2022-09-23T11:14:54.359Z,14.48
2022-09-23T11:17:51.077Z,14.53
2022-09-23T11:20:41.663Z,14.62
2022-09-23T11:23:43.903Z,14.55
2022-09-23T11:26:32.949Z,14.62
2022-09-23T11:29:19.318Z,14.71
2022-09-23T11:32:09.157Z,14.76
2022-09-23T11:35:02.470Z,14.76
2022-09-23T11:37:36.104Z,14.69
2022-09-23T11:40:19.851Z,14.66
2022-09-23T11:43:15.635Z,14.62
2022-09-23T11:46:15.968Z,14.63
2022-09-23T11:48:50.690Z,14.47
2022-09-23T11:51:27.071Z,14.26
2022-09-23T11:54:20.429Z,14.05
2022-09-23T11:57:03.500Z,13.87
2022-09-23T11:59:52.014Z,13.68
2022-09-23T12:03:02.826Z,13.55
2022-09-23T12:05:44.572Z,13.45
2022-09-23T12:08:27.267Z,13.35
2022-09-23T12:11:27.096Z,13.24
2022-09-23T12:14:01.428Z,13.14
2022-09-23T12:17:01.813Z,13.05
2022-09-23T12:20:00.749Z,12.98
2022-09-23T12:22:51.048Z,13.00
2022-09-23T12:25:34.929Z,13.09
2022-09-23T12:28:05.222Z,13.23
2022-09-23T12:30:36.732Z,13.30
2022-09-23T12:33:33.224Z,13.36
2022-09-23T12:36:06.929Z,13.46
2022-09-23T12:38:47.416Z,13.62
2022-09-23T12:41:22.640Z,14.04
2022-09-23T12:44:15.115Z,14.56
2022-09-23T12:46:46.831Z,15.31
2022-09-23T12:49:30.608Z,16.18
2022-09-23T12:52:17.227Z,17.46
2022-09-23T12:54:50.417Z,18.91
2022-09-23T12:57:34.523Z,20.24
2022-09-23T13:00:12.870Z,21.54
2022-09-23T13:03:12.069Z,22.49
2022-09-23T13:06:14.928Z,21.97
2022-09-23T13:08:43.826Z,22.38
2022-09-23T13:11:25.356Z,23.26
2022-09-23T13:13:56.392Z,23.56
2022-09-23T13:16:45.603Z,24.05
2022-09-23T13:19:36.657Z,25.22
2022-09-23T13:22:09.657Z,26.78
2022-09-23T13:24:39.777Z,28.10
2022-09-23T13:27:30.999Z,29.34
2022-09-23T13:30:21.245Z,30.27
2022-09-23T13:33:07.701Z,31.48
2022-09-23T13:35:39.717Z,31.88
2022-09-23T13:38:31.899Z,32.11
2022-09-23T13:41:04.611Z,30.82
2022-09-23T13:43:41.376Z,29.54
2022-09-23T13:46:28.047Z,28.59
2022-09-23T13:48:57.116Z,29.39
2022-09-23T13:51:44.582Z,30.63
2022-09-23T13:54:31.083Z,31.60
2022-09-23T13:57:00.436Z,30.65
2022-09-23T13:59:36.560Z,28.82
2022-09-23T14:02:20.394Z,28.40
2022-09-23T14:04:48.340Z,28.66
2022-09-23T14:07:19.115Z,28.31
2022-09-23T14:09:50.092Z,28.19
2022-09-23T14:12:22.515Z,28.52
2022-09-23T14:14:52.606Z,28.72
2022-09-23T14:17:25.400Z,29.42
2022-09-23T14:19:53.377Z,29.98
2022-09-23T14:22:29.964Z,30.49
2022-09-23T14:24:59.335Z,30.39
2022-09-23T14:27:32.382Z,30.40
2022-09-23T14:30:02.729Z,30.96
2022-09-23T14:32:32.891Z,31.18
2022-09-23T14:35:04.574Z,31.48
2022-09-23T14:37:52.776Z,31.66
2022-09-23T14:40:22.612Z,30.63
2022-09-23T14:42:56.790Z,28.84
2022-09-23T14:45:27.733Z,27.33
2022-09-23T14:48:10.658Z,26.43
2022-09-23T14:50:54.720Z,26.54
2022-09-23T14:53:40.630Z,26.63
2022-09-23T14:56:08.577Z,27.20
2022-09-23T14:58:57.542Z,28.12
2022-09-23T15:01:33.640Z,28.82
2022-09-23T15:04:24.395Z,29.42
2022-09-23T15:06:59.508Z,29.91
2022-09-23T15:09:32.342Z,30.29
2022-09-23T15:12:22.087Z,30.59
2022-09-23T15:14:54.225Z,30.83
2022-09-23T15:17:30.157Z,30.68
2022-09-23T15:20:04.329Z,30.54
2022-09-23T15:22:32.432Z,29.99
2022-09-23T15:25:21.411Z,28.52
2022-09-23T15:28:14.236Z,26.68
2022-09-23T15:30:42.408Z,25.00
2022-09-23T15:33:13.824Z,23.68
2022-09-23T15:35:49.413Z,22.57
2022-09-23T15:38:17.903Z,21.66
2022-09-23T15:40:46.505Z,20.87
2022-09-23T15:43:21.793Z,20.11
2022-09-23T15:45:53.285Z,19.39
2022-09-23T15:48:26.082Z,18.80
2022-09-23T15:50:55.256Z,18.30
2022-09-23T15:53:27.032Z,17.89
2022-09-23T15:55:55.108Z,17.48
2022-09-23T15:58:23.701Z,16.99
2022-09-23T16:00:56.855Z,16.55
2022-09-23T16:03:30.759Z,16.15
2022-09-23T16:06:02.527Z,15.76
2022-09-23T16:08:33.024Z,15.46
2022-09-23T16:11:01.344Z,15.12
2022-09-23T16:13:29.528Z,14.81
2022-09-23T16:15:57.735Z,14.54
2022-09-23T16:18:26.024Z,14.29
2022-09-23T16:20:54.868Z,14.07
2022-09-23T16:23:34.665Z,13.90
2022-09-23T16:26:04.897Z,13.73
2022-09-23T16:28:34.056Z,13.57
2022-09-23T16:31:01.890Z,13.39
2022-09-23T16:33:30.084Z,13.18
2022-09-23T16:36:00.809Z,12.96
2022-09-23T16:38:29.603Z,12.80
2022-09-23T16:41:00.309Z,12.69
2022-09-23T16:43:32.524Z,12.62
2022-09-23T16:46:01.196Z,12.58
2022-09-23T16:48:29.368Z,12.51
2022-09-23T16:50:57.258Z,12.41
2022-09-23T16:53:29.761Z,12.28
2022-09-23T16:56:01.080Z,12.16
2022-09-23T16:58:29.046Z,12.07
2022-09-23T17:01:14.017Z,11.97
2022-09-23T17:03:42.170Z,11.88
2022-09-23T17:06:14.507Z,11.77
2022-09-23T17:08:42.830Z,11.65
2022-09-23T17:11:10.824Z,11.56
2022-09-23T17:13:41.130Z,11.48
2022-09-23T17:16:11.971Z,11.41
2022-09-23T17:18:39.904Z,11.32
2022-09-23T17:21:08.620Z,11.24
2022-09-23T17:23:37.129Z,11.16
2022-09-23T17:26:12.655Z,11.08
2022-09-23T17:28:40.613Z,10.98
2022-09-23T17:31:08.929Z,10.90
2022-09-23T17:33:37.703Z,10.82
2022-09-23T17:36:10.818Z,10.74
2022-09-23T17:38:39.466Z,10.65
2022-09-23T17:41:08.968Z,10.53
2022-09-23T17:43:38.517Z,10.43
2022-09-23T17:46:12.936Z,10.33
2022-09-23T17:48:41.896Z,10.26
2022-09-23T17:51:16.138Z,10.19
2022-09-23T17:53:46.557Z,10.14
2022-09-23T17:56:18.639Z,10.12
2022-09-23T17:58:48.551Z,10.10
2022-09-23T18:01:24.972Z,10.11
2022-09-23T18:04:01.239Z,10.11
2022-09-23T18:06:35.616Z,10.12
2022-09-23T18:09:06.512Z,10.13
2022-09-23T18:11:37.031Z,10.14
2022-09-23T18:14:13.746Z,10.15
2022-09-23T18:16:44.351Z,10.13
2022-09-23T18:19:18.567Z,10.07
2022-09-23T18:21:52.397Z,10.00
2022-09-23T18:24:31.709Z,9.95
2022-09-23T18:27:01.653Z,9.91
2022-09-23T18:29:29.888Z,9.88
2022-09-23T18:31:59.495Z,9.86
2022-09-23T18:34:28.939Z,9.80
2022-09-23T18:36:57.219Z,9.74
2022-09-23T18:39:25.274Z,9.67
2022-09-23T18:41:53.248Z,9.63
2022-09-23T18:44:21.119Z,9.61
2022-09-23T18:46:49.064Z,9.59
2022-09-23T18:49:32.950Z,9.58
2022-09-23T18:52:01.610Z,9.56
2022-09-23T18:54:30.502Z,9.56
2022-09-23T18:56:59.395Z,9.56
2022-09-23T18:59:29.034Z,9.49
2022-09-23T19:01:58.079Z,9.42
2022-09-23T19:04:27.381Z,9.31
2022-09-23T19:06:56.775Z,9.22
2022-09-23T19:09:25.177Z,9.17
2022-09-23T19:11:53.866Z,9.13
2022-09-23T19:14:22.351Z,9.07
2022-09-23T19:16:50.921Z,8.96
2022-09-23T19:19:19.516Z,8.85
2022-09-23T19:21:47.611Z,8.76
2022-09-23T19:24:19.870Z,8.69
2022-09-23T19:26:48.679Z,8.63
2022-09-23T19:29:19.843Z,8.59
2022-09-23T19:31:49.006Z,8.56
2022-09-23T19:34:19.929Z,8.53
2022-09-23T19:36:48.436Z,8.52
2022-09-23T19:39:22.361Z,8.53
2022-09-23T19:41:52.378Z,8.56
2022-09-23T19:44:20.517Z,8.56
2022-09-23T19:46:55.062Z,8.56
2022-09-23T19:49:25.881Z,8.59
2022-09-23T19:51:56.077Z,8.63
2022-09-23T19:54:27.596Z,8.67
2022-09-23T19:56:56.135Z,8.71
2022-09-23T19:59:26.601Z,8.73
2022-09-23T20:01:55.163Z,8.76
2022-09-23T20:04:23.539Z,8.76
2022-09-23T20:06:51.707Z,8.76
2022-09-23T20:09:19.698Z,8.75
2022-09-23T20:11:47.656Z,8.74
2022-09-23T20:14:15.578Z,8.74
2022-09-23T20:16:44.482Z,8.76
2022-09-23T20:19:13.728Z,8.79
2022-09-23T20:21:41.785Z,8.81
2022-09-23T20:24:11.923Z,8.83
2022-09-23T20:26:56.165Z,8.84
2022-09-23T20:29:24.314Z,8.82
2022-09-23T20:31:52.254Z,8.77
2022-09-23T20:34:21.628Z,8.73
2022-09-23T20:36:49.757Z,8.65
2022-09-23T20:39:17.649Z,8.60
2022-09-23T20:41:46.131Z,8.57
2022-09-23T20:44:14.453Z,8.54
2022-09-23T20:46:48.192Z,8.50
2022-09-23T20:49:17.981Z,8.51
2022-09-23T20:51:49.677Z,8.51
2022-09-23T20:54:19.237Z,8.51
2022-09-23T20:56:47.886Z,8.49
2022-09-23T20:59:18.123Z,8.42
2022-09-23T21:01:47.741Z,8.39
2022-09-23T21:04:16.210Z,8.39
2022-09-23T21:06:44.218Z,8.37
2022-09-23T21:09:12.134Z,8.32
2022-09-23T21:11:40.557Z,8.24
2022-09-23T21:14:09.035Z,8.18
2022-09-23T21:16:37.123Z,8.14
2022-09-23T21:19:08.259Z,8.13
2022-09-23T21:21:36.792Z,8.14
2022-09-23T21:24:32.525Z,8.18
2022-09-23T21:26:53.049Z,8.20
2022-09-23T21:29:21.305Z,8.24
2022-09-23T21:31:49.894Z,8.29
2022-09-23T21:34:19.311Z,8.31
2022-09-23T21:36:48.142Z,8.30
2022-09-23T21:39:16.304Z,8.27
2022-09-23T21:41:44.351Z,8.22
2022-09-23T21:44:12.393Z,8.14
2022-09-23T21:46:40.489Z,8.07
2022-09-23T21:49:09.194Z,7.99
2022-09-23T21:51:42.265Z,7.91
2022-09-23T21:54:15.969Z,7.86
2022-09-23T21:56:44.522Z,7.86
2022-09-23T21:59:13.023Z,7.85
2022-09-23T22:01:45.116Z,7.82
2022-09-23T22:04:18.519Z,7.81
2022-09-23T22:06:48.983Z,7.79
2022-09-23T22:09:19.802Z,7.79
2022-09-23T22:12:03.922Z,7.79
2022-09-23T22:14:32.170Z,7.79
2022-09-23T22:17:02.719Z,7.75
2022-09-23T22:19:34.846Z,7.75
2022-09-23T22:22:13.298Z,7.76
2022-09-23T22:24:46.487Z,7.72
2022-09-23T22:27:17.330Z,7.71
2022-09-23T22:30:01.257Z,7.67
2022-09-23T22:32:45.309Z,7.65
2022-09-23T22:35:18.756Z,7.64
2022-09-23T22:37:48.103Z,7.63
2022-09-23T22:40:16.263Z,7.63
2022-09-23T22:42:44.552Z,7.61
2022-09-23T22:45:13.239Z,7.64
2022-09-23T22:47:45.495Z,7.66
2022-09-23T22:50:14.779Z,7.64
2022-09-23T22:52:43.314Z,7.59
2022-09-23T22:55:12.258Z,7.57
2022-09-23T22:57:40.161Z,7.53
2022-09-23T23:00:09.421Z,7.51
2022-09-23T23:02:37.529Z,7.53
2022-09-23T23:05:06.323Z,7.54
2022-09-23T23:07:36.180Z,7.58
2022-09-23T23:10:07.267Z,7.61
2022-09-23T23:12:35.185Z,7.62
2022-09-23T23:15:03.246Z,7.65
2022-09-23T23:17:31.493Z,7.67
2022-09-23T23:19:59.887Z,7.68
2022-09-23T23:22:28.684Z,7.67
2022-09-23T23:24:57.019Z,7.66
2022-09-23T23:27:24.931Z,7.62
2022-09-23T23:29:52.985Z,7.54
2022-09-23T23:32:20.860Z,7.46
2022-09-23T23:34:48.829Z,7.37
2022-09-23T23:37:20.817Z,7.30
2022-09-23T23:39:49.198Z,7.27
2022-09-23T23:42:17.764Z,7.22
2022-09-23T23:44:45.783Z,7.19
2022-09-23T23:47:13.903Z,7.18
2022-09-23T23:49:41.788Z,7.18
2022-09-23T23:52:10.043Z,7.17
2022-09-23T23:54:38.554Z,7.13
2022-09-23T23:57:06.434Z,7.10
2022-09-23T23:59:34.384Z,7.09
